Time;durP1;ratioP1;P1;durP2;ratioP2;P2;SDS_P1;SDS_P2;PMS_P1;PMS_P2;Temp;Humidity;BMP_temperature;BMP_pressure;BME280_temperature;BME280_humidity;BME280_pressure;Samples;Min_cycle;Max_cycle;Signal;HPM_P1;HPM_P2
2021/11/21 00:01:35;;;;;;;20.83;18.45;;;;;;;8.88;74.50;100165.84;10309015;28;20076;-65
2021/11/21 00:06:36;;;;;;;20.23;18.02;;;;;;;8.99;74.50;100157.91;10284103;28;20524;-65
2021/11/21 00:11:38;;;;;;;22.63;20.23;;;;;;;9.01;74.57;100153.34;10284250;28;20046;-65
2021/11/21 00:16:40;;;;;;;20.33;18.35;;;;;;;9.06;74.05;100143.19;10302348;28;20084;-64
2021/11/21 00:21:41;;;;;;;20.65;18.52;;;;;;;8.85;74.35;100141.19;10302510;28;20053;-64
2021/11/21 00:26:43;;;;;;;21.75;19.45;;;;;;;8.74;74.98;100140.34;10283548;28;20042;-64
2021/11/21 00:31:44;;;;;;;19.92;17.88;;;;;;;8.74;75.49;100117.28;10307263;28;20130;-64
2021/11/21 00:36:46;;;;;;;20.58;18.40;;;;;;;8.66;75.38;100114.34;10278992;28;20069;-65
2021/11/21 00:41:47;;;;;;;20.23;18.17;;;;;;;8.63;75.49;100114.56;10298134;28;20049;-65
2021/11/21 00:46:49;;;;;;;21.55;19.35;;;;;;;8.60;76.15;100117.47;10299529;28;20141;-64
2021/11/21 00:51:50;;;;;;;23.10;20.80;;;;;;;8.66;75.51;100114.34;10288318;28;20068;-65
2021/11/21 00:56:52;;;;;;;21.85;19.60;;;;;;;8.66;75.49;100114.34;10289605;28;20125;-64
2021/11/21 01:01:54;;;;;;;21.85;19.65;;;;;;;8.79;75.75;100114.28;10308171;28;20057;-64
2021/11/21 01:06:55;;;;;;;24.70;19.42;;;;;;;8.79;75.38;100109.81;10307239;28;20058;-65
2021/11/21 01:11:57;;;;;;;23.98;18.90;;;;;;;8.60;76.21;100101.53;10306807;28;20062;-64
2021/11/21 01:16:59;;;;;;;23.42;18.50;;;;;;;8.47;77.03;100089.19;10285462;28;20476;-64
2021/11/21 01:22:02;;;;;;;24.73;17.98;;;;;;;8.44;77.96;100096.56;10306287;28;20214;-66
2021/11/21 01:27:05;;;;;;;23.50;18.85;;;;;;;8.35;78.71;100094.53;10306561;28;20113;-62
2021/11/21 01:32:06;;;;;;;24.33;19.02;;;;;;;8.48;78.81;100084.72;10305373;28;20125;-64
2021/11/21 01:37:08;;;;;;;24.50;19.17;;;;;;;8.29;80.27;100085.22;10307831;28;20053;-64
2021/11/21 01:42:10;;;;;;;29.95;20.48;;;;;;;8.06;81.75;100068.34;10296024;28;20050;-64
2021/11/21 01:47:11;;;;;;;24.83;20.23;;;;;;;8.04;82.96;100055.19;10316792;28;20133;-65
2021/11/21 01:52:13;;;;;;;27.27;20.92;;;;;;;8.00;82.87;100052.88;10294019;28;20061;-64
2021/11/21 01:57:16;;;;;;;29.90;21.67;;;;;;;7.95;83.91;100042.63;10303238;28;20058;-64
2021/11/21 02:02:18;;;;;;;23.77;19.00;;;;;;;8.04;83.58;100044.59;10297153;28;20050;-64
2021/11/21 02:07:20;;;;;;;22.08;18.77;;;;;;;8.18;83.30;100029.47;10294015;28;20100;-64
2021/11/21 02:12:21;;;;;;;22.98;19.42;;;;;;;8.24;82.26;100021.06;10312978;28;20057;-63
2021/11/21 02:17:27;;;;;;;24.55;19.08;;;;;;;8.19;82.21;100009.97;10306824;28;20125;-64
2021/11/21 02:22:29;;;;;;;21.40;17.23;;;;;;;8.14;82.55;100007.66;10272611;28;20129;-65
2021/11/21 02:27:31;;;;;;;20.35;16.35;;;;;;;8.09;83.13;100004.50;10272257;28;20050;-64
2021/11/21 02:32:32;;;;;;;21.55;17.05;;;;;;;8.11;82.81;99991.97;10256366;28;20181;-65
2021/11/21 02:37:37;;;;;;;21.88;18.02;;;;;;;8.16;83.08;99994.28;10270476;28;20401;-65
2021/11/21 02:42:38;;;;;;;18.55;15.23;;;;;;;8.05;82.60;99982.69;10270272;28;20065;-64
2021/11/21 02:47:40;;;;;;;18.80;15.90;;;;;;;8.01;82.69;99961.81;10268030;28;20062;-65
2021/11/21 02:52:41;;;;;;;21.42;17.17;;;;;;;7.98;82.87;99960.22;10266329;28;20053;-65
2021/11/21 02:57:44;;;;;;;19.27;16.48;;;;;;;7.78;83.28;99965.19;10269150;28;20134;-65
2021/11/21 03:02:46;;;;;;;20.90;16.10;;;;;;;7.70;83.94;99959.63;10251172;28;20073;-65
2021/11/21 03:07:49;;;;;;;20.38;17.10;;;;;;;7.70;84.54;99956.97;10270319;28;20050;-65
2021/11/21 03:12:55;;;;;;;20.08;17.50;;;;;;;7.66;83.74;99944.06;10270185;28;20550;-64
2021/11/21 03:17:56;;;;;;;19.73;15.90;;;;;;;7.65;83.78;99937.06;10270716;28;20547;-64
2021/11/21 03:22:59;;;;;;;19.02;15.15;;;;;;;7.60;84.81;99945.34;10262319;28;20146;-65
2021/11/21 03:28:02;;;;;;;16.67;13.48;;;;;;;7.51;84.44;99933.63;10270250;28;20129;-65
2021/11/21 03:33:04;;;;;;;15.77;13.48;;;;;;;7.46;84.71;99932.25;10271518;28;20129;-65
2021/11/21 03:38:05;;;;;;;15.52;12.25;;;;;;;7.49;84.71;99916.16;10269538;28;20058;-66
2021/11/21 03:43:07;;;;;;;15.02;11.73;;;;;;;7.53;84.23;99922.91;10263967;28;20057;-65
2021/11/21 03:48:08;;;;;;;15.27;13.15;;;;;;;7.69;84.41;99904.94;10269074;28;20054;-64
2021/11/21 03:53:10;;;;;;;17.05;13.30;;;;;;;7.77;83.62;99899.91;10262571;28;20065;-63
2021/11/21 03:58:12;;;;;;;15.85;12.05;;;;;;;7.71;82.87;99899.53;10267890;28;20540;-64
2021/11/21 04:03:16;;;;;;;16.75;13.18;;;;;;;7.77;82.83;99905.19;10254373;28;20074;-65
2021/11/21 04:08:18;;;;;;;15.10;11.90;;;;;;;7.53;83.73;99896.44;10260788;28;20138;-65
2021/11/21 04:13:19;;;;;;;16.55;12.40;;;;;;;7.65;82.99;99881.44;10263434;28;20105;-65
2021/11/21 04:18:21;;;;;;;16.30;13.27;;;;;;;7.58;83.37;99886.31;10266037;28;20133;-65
2021/11/21 04:23:24;;;;;;;17.35;14.32;;;;;;;7.61;83.18;99886.09;10264222;28;20174;-65
2021/11/21 04:28:26;;;;;;;18.70;14.50;;;;;;;7.49;84.06;99879.94;10261856;28;20081;-65
2021/11/21 04:33:28;;;;;;;19.27;14.75;;;;;;;7.55;83.88;99862.72;10268487;28;20440;-65
2021/11/21 04:38:29;;;;;;;17.52;13.43;;;;;;;7.57;83.37;99866.13;10266952;28;20587;-64
2021/11/21 04:43:30;;;;;;;16.05;13.18;;;;;;;7.52;83.44;99865.59;10266175;28;20069;-64
2021/11/21 04:48:32;;;;;;;16.13;12.98;;;;;;;7.48;83.82;99858.84;10267234;28;20046;-66
2021/11/21 04:53:34;;;;;;;17.98;13.50;;;;;;;7.50;83.91;99859.59;10264245;28;20174;-65
2021/11/21 04:58:35;;;;;;;17.40;14.07;;;;;;;7.39;84.05;99847.97;10265521;28;20050;-65
2021/11/21 05:03:37;;;;;;;18.67;14.32;;;;;;;7.42;83.97;99855.69;10261124;28;20051;-64
2021/11/21 05:08:38;;;;;;;16.58;13.27;;;;;;;7.35;84.49;99854.44;10251674;28;20660;-65
2021/11/21 05:13:39;;;;;;;18.77;14.07;;;;;;;7.31;84.28;99860.94;10264528;28;20053;-65
2021/11/21 05:18:41;;;;;;;17.83;14.02;;;;;;;7.49;84.29;99864.03;10262406;28;20046;-66
2021/11/21 05:23:42;;;;;;;16.42;12.57;;;;;;;7.54;83.66;99861.06;10256214;28;20058;-64
2021/11/21 05:28:43;;;;;;;16.35;12.82;;;;;;;7.50;83.44;99857.75;10262550;28;20054;-64
2021/11/21 05:33:45;;;;;;;17.67;13.30;;;;;;;7.51;83.33;99863.94;10267834;28;20043;-64
2021/11/21 05:38:46;;;;;;;16.25;11.48;;;;;;;7.45;83.04;99859.91;10264770;28;20134;-66
2021/11/21 05:43:47;;;;;;;15.88;12.52;;;;;;;7.50;83.80;99855.13;10263462;28;20425;-65
2021/11/21 05:48:52;;;;;;;14.63;11.32;;;;;;;7.50;83.55;99859.59;10264517;28;20070;-64
2021/11/21 05:53:54;;;;;;;17.13;12.10;;;;;;;7.46;83.76;99863.41;10260799;28;20065;-64
2021/11/21 05:58:55;;;;;;;18.08;14.27;;;;;;;7.37;84.12;99849.03;10248246;28;20129;-64
2021/11/21 06:03:58;;;;;;;19.70;13.05;;;;;;;7.50;84.07;99859.59;10266249;28;20046;-64
2021/11/21 06:09:00;;;;;;;17.38;12.70;;;;;;;7.48;83.96;99856.22;10259647;28;20049;-65
2021/11/21 06:14:01;;;;;;;19.00;14.18;;;;;;;7.40;84.63;99849.66;10246643;28;21741;-64
2021/11/21 06:19:03;;;;;;;17.85;13.85;;;;;;;7.46;84.04;99840.44;10260741;28;20134;-65
2021/11/21 06:24:04;;;;;;;20.48;15.60;;;;;;;7.36;84.98;99842.91;10264051;28;20137;-65
2021/11/21 06:29:06;;;;;;;18.75;14.30;;;;;;;7.36;85.36;99842.91;10266729;28;20059;-65
2021/11/21 06:34:07;;;;;;;20.70;16.10;;;;;;;7.44;84.50;99835.22;10275577;28;20051;-63
2021/11/21 06:39:10;;;;;;;23.33;15.82;;;;;;;7.49;84.37;99834.03;10256223;28;20066;-65
2021/11/21 06:44:12;;;;;;;18.65;14.82;;;;;;;7.40;84.82;99833.78;10273696;28;20134;-65
2021/11/21 06:49:13;;;;;;;19.52;15.32;;;;;;;7.30;85.15;99834.59;10271881;28;20475;-64
2021/11/21 06:54:15;;;;;;;19.35;14.82;;;;;;;7.37;84.95;99839.31;10271255;28;20420;-65
2021/11/21 06:59:16;;;;;;;21.80;15.07;;;;;;;7.30;85.25;99829.28;10267831;28;20305;-65
2021/11/21 07:04:17;;;;;;;17.55;14.55;;;;;;;7.47;84.74;99818.28;10274254;28;20159;-65
2021/11/21 07:09:19;;;;;;;19.85;14.82;;;;;;;7.39;84.24;99810.91;10271441;28;20047;-65
2021/11/21 07:14:20;;;;;;;17.83;14.23;;;;;;;7.43;84.78;99809.72;10271179;28;20045;-65
2021/11/21 07:19:22;;;;;;;19.85;14.10;;;;;;;7.38;84.15;99817.16;10285807;28;20592;-65
2021/11/21 07:24:24;;;;;;;19.10;14.77;;;;;;;7.35;84.18;99809.44;10290555;28;20125;-65
2021/11/21 07:29:29;;;;;;;15.80;12.85;;;;;;;7.50;83.64;99806.59;10310881;28;20477;-65
2021/11/21 07:34:30;;;;;;;16.40;13.05;;;;;;;7.51;82.90;99810.97;10313181;28;20132;-63
2021/11/21 07:39:32;;;;;;;15.20;12.00;;;;;;;7.48;83.02;99819.13;10293000;28;20058;-68
2021/11/21 07:44:33;;;;;;;16.30;12.27;;;;;;;7.50;82.95;99811.91;10311793;28;20271;-65
2021/11/21 07:49:34;;;;;;;15.65;12.40;;;;;;;7.53;83.04;99809.88;10300273;28;20046;-65
2021/11/21 07:54:36;;;;;;;13.70;11.43;;;;;;;7.58;82.08;99814.81;10299709;28;20133;-69
2021/11/21 07:59:37;;;;;;;14.55;11.55;;;;;;;7.46;82.11;99805.13;10311757;28;20077;-67
2021/11/21 08:04:39;;;;;;;13.48;10.80;;;;;;;7.55;83.01;99815.03;10330067;28;20428;-67
2021/11/21 08:09:40;;;;;;;14.57;11.18;;;;;;;7.48;82.04;99813.84;10326270;28;20148;-66
2021/11/21 08:14:42;;;;;;;15.52;11.40;;;;;;;7.31;83.07;99818.56;10326797;28;20050;-68
2021/11/21 08:19:44;;;;;;;15.90;10.80;;;;;;;7.43;83.08;99804.44;10307755;28;20052;-68
2021/11/21 08:24:45;;;;;;;15.57;11.07;;;;;;;7.44;83.34;99800.78;10308939;28;20097;-66
2021/11/21 08:29:49;;;;;;;13.80;10.93;;;;;;;7.43;82.52;99814.16;10326187;28;20068;-66
2021/11/21 08:34:51;;;;;;;13.97;11.33;;;;;;;7.37;83.17;99802.22;10326640;28;20133;-67
2021/11/21 08:39:53;;;;;;;14.57;11.93;;;;;;;7.46;81.91;99805.13;10327060;28;25125;-67
2021/11/21 08:44:55;;;;;;;13.60;10.98;;;;;;;7.30;82.28;99822.19;10306080;28;20054;-67
2021/11/21 08:49:56;;;;;;;13.43;10.65;;;;;;;7.43;82.52;99815.00;10319845;28;20064;-66
2021/11/21 08:54:58;;;;;;;14.57;10.48;;;;;;;7.38;81.89;99818.97;10305832;28;20069;-67
2021/11/21 09:00:04;;;;;;;12.35;9.98;;;;;;;7.24;82.26;99822.63;10323285;28;20493;-67
2021/11/21 09:05:07;;;;;;;15.73;10.55;;;;;;;7.39;82.84;99820.66;10324508;28;20054;-66
2021/11/21 09:10:13;;;;;;;13.93;10.48;;;;;;;7.46;82.18;99816.59;10312722;28;20496;-67
2021/11/21 09:15:17;;;;;;;12.13;9.52;;;;;;;7.36;82.54;99818.25;10306884;28;20419;-69
2021/11/21 09:20:20;;;;;;;;;;;;;;;7.39;82.53;99821.50;10321961;28;20132;-66
2021/11/21 09:25:22;;;;;;;14.93;10.48;;;;;;;7.42;82.79;99817.78;10316499;28;20315;-67
2021/11/21 09:30:23;;;;;;;13.32;10.82;;;;;;;7.50;82.29;99811.91;10314657;28;20420;-68
2021/11/21 09:35:25;;;;;;;13.38;10.52;;;;;;;7.58;81.78;99810.38;10317708;28;20458;-68
2021/11/21 09:40:26;;;;;;;12.30;9.85;;;;;;;7.76;81.94;99818.75;10315123;28;20506;-67
2021/11/21 09:45:28;;;;;;;14.32;12.20;;;;;;;7.63;81.12;99802.09;10300948;28;20091;-67
2021/11/21 09:50:33;;;;;;;13.13;10.43;;;;;;;7.48;81.09;99797.94;10321556;28;20060;-67
2021/11/21 09:55:36;;;;;;;61.67;54.95;;;;;;;7.72;81.03;99805.84;10318149;28;20571;-68
2021/11/21 10:00:37;;;;;;;20.13;18.00;;;;;;;7.77;80.84;99798.38;10321559;28;20133;-66
2021/11/21 10:05:48;;;;;;;17.70;12.90;;;;;;;7.83;80.67;99802.38;10331439;28;20076;-66
2021/11/21 10:11:01;;;;;;;14.75;13.15;;;;;;;7.89;80.43;99796.59;10283185;28;22110;-66
2021/11/21 10:16:18;;;;;;;13.07;10.40;;;;;;;7.98;80.18;99780.00;10258540;28;20065;-66
2021/11/21 10:21:25;;;;;;;19.33;17.40;;;;;;;8.08;80.17;99775.66;10261518;28;20466;-65
2021/11/21 10:26:26;;;;;;;11.50;9.85;;;;;;;8.10;80.25;99757.81;10260362;28;20468;-65
2021/11/21 10:31:30;;;;;;;10.43;9.02;;;;;;;7.99;78.83;99754.31;10310118;28;20064;-69
2021/11/21 10:36:38;;;;;;;10.03;8.90;;;;;;;8.10;78.18;99746.38;10328664;28;20125;-66
2021/11/21 10:41:44;;;;;;;9.35;7.63;;;;;;;8.09;76.60;99753.50;10329823;28;20435;-66
2021/11/21 10:46:53;;;;;;;9.85;7.95;;;;;;;8.00;76.88;99738.31;10271306;28;20464;-66
2021/11/21 10:51:58;;;;;;;9.80;8.70;;;;;;;7.99;77.67;99744.59;10330241;28;20169;-66
2021/11/21 10:57:07;;;;;;;10.00;7.70;;;;;;;8.07;77.60;99736.84;10325859;28;20128;-66
2021/11/21 11:02:09;;;;;;;10.88;7.95;;;;;;;8.02;77.46;99744.34;10330244;28;20052;-66
2021/11/21 11:07:17;;;;;;;9.35;8.27;;;;;;;7.99;77.58;99731.31;10333161;28;20081;-66
2021/11/21 11:12:20;;;;;;;11.00;8.75;;;;;;;7.93;77.61;99719.38;10319503;28;20661;-65
2021/11/21 11:17:23;;;;;;;10.10;8.40;;;;;;;7.93;77.90;99713.25;10309829;28;20365;-66
2021/11/21 11:22:26;;;;;;;11.60;9.05;;;;;;;8.01;77.58;99716.13;10310353;28;20054;-67
2021/11/21 11:27:43;;;;;;;10.15;8.43;;;;;;;8.06;78.60;99724.59;10324572;28;20054;-66
2021/11/21 11:32:46;;;;;;;12.98;9.38;;;;;;;8.25;77.13;99712.53;10322947;28;20142;-68
2021/11/21 11:37:55;;;;;;;14.15;8.85;;;;;;;8.37;76.87;99723.97;10328823;28;20408;-67
2021/11/21 11:42:59;;;;;;;10.48;8.30;;;;;;;8.37;76.26;99706.22;10326118;28;20064;-66
2021/11/21 11:48:29;;;;;;;9.32;7.47;;;;;;;8.27;76.08;99726.50;10326058;28;20482;-66
2021/11/21 11:53:45;;;;;;;8.98;7.35;;;;;;;8.13;76.63;99723.13;10247184;28;20073;-66
2021/11/21 11:58:50;;;;;;;8.68;7.40;;;;;;;8.01;76.48;99710.00;10261459;28;20058;-66
2021/11/21 12:03:51;;;;;;;9.52;7.22;;;;;;;7.87;77.17;99708.44;10235363;28;20126;-66
2021/11/21 12:09:21;;;;;;;9.00;7.10;;;;;;;7.96;77.09;99718.31;10258149;28;20051;-65
2021/11/21 12:14:31;;;;;;;9.15;6.97;;;;;;;7.91;77.58;99708.06;10267067;28;20046;-67
2021/11/21 12:19:52;;;;;;;9.50;6.93;;;;;;;8.06;77.45;99721.94;10259502;28;20276;-65
2021/11/21 12:24:55;;;;;;;8.98;6.40;;;;;;;8.04;77.28;99715.06;10308587;28;20054;-66
2021/11/21 12:30:23;;;;;;;8.95;6.65;;;;;;;8.22;77.11;99707.47;10322802;28;20057;-66
2021/11/21 12:35:24;;;;;;;6.78;5.32;;;;;;;8.12;76.67;99697.59;10254061;28;20265;-70
2021/11/21 12:40:35;;;;;;;8.10;6.40;;;;;;;8.05;77.35;99695.56;10262595;28;20437;-66
2021/11/21 12:45:42;;;;;;;7.38;6.55;;;;;;;8.21;77.41;99700.47;10249396;28;20057;-66
2021/11/21 12:50:48;;;;;;;8.60;6.65;;;;;;;8.31;76.53;99696.94;10253071;28;20137;-66
2021/11/21 12:56:02;;;;;;;8.00;6.22;;;;;;;8.30;77.51;99700.59;10232135;28;20053;-66
2021/11/21 13:01:08;;;;;;;8.25;6.38;;;;;;;8.29;78.08;99695.41;10321695;28;20229;-65
2021/11/21 13:06:13;;;;;;;8.38;6.18;;;;;;;8.16;77.54;99682.28;10320483;28;20058;-66
2021/11/21 13:11:18;;;;;;;8.38;7.35;;;;;;;8.35;77.95;99691.41;10326460;28;20068;-67
2021/11/21 13:16:22;;;;;;;8.20;6.68;;;;;;;8.40;78.25;99682.13;10304339;28;20080;-67
2021/11/21 13:21:30;;;;;;;6.93;6.22;;;;;;;8.58;77.53;99687.78;10325662;28;20050;-67
2021/11/21 13:26:33;;;;;;;8.32;6.40;;;;;;;8.42;77.91;99676.69;10322159;28;20046;-66
2021/11/21 13:31:39;;;;;;;7.75;5.88;;;;;;;8.30;78.67;99681.16;10305921;28;20066;-66
2021/11/21 13:36:42;;;;;;;7.78;6.18;;;;;;;8.25;79.08;99691.31;10323598;28;20046;-67
2021/11/21 13:41:58;;;;;;;7.35;5.47;;;;;;;8.19;79.71;99679.38;10331668;28;20053;-67
2021/11/21 13:47:04;;;;;;;7.47;6.03;;;;;;;8.23;81.13;99682.66;10333099;28;20475;-66
2021/11/21 13:52:07;;;;;;;;;;;;;;;8.25;81.43;99692.13;10331834;28;20061;-66
2021/11/21 13:57:28;;;;;;;8.65;6.63;;;;;;;8.21;82.07;99684.56;10329433;28;20015;-66
2021/11/21 14:02:33;;;;;;;8.15;5.97;;;;;;;8.14;82.90;99689.53;10321405;28;20049;-67
2021/11/21 14:07:35;;;;;;;7.40;6.30;;;;;;;7.96;83.73;99670.63;10330271;28;20051;-66
2021/11/21 14:12:40;;;;;;;7.68;5.80;;;;;;;8.02;83.71;99686.03;10316887;28;20058;-66
2021/11/21 14:17:52;;;;;;;7.40;5.55;;;;;;;7.96;84.03;99690.00;10337899;28;20573;-68
2021/11/21 14:23:00;;;;;;;6.38;5.55;;;;;;;8.09;84.83;99683.72;10339951;28;20507;-66
2021/11/21 14:28:08;;;;;;;9.75;7.25;;;;;;;8.23;84.11;99687.94;10327030;28;20046;-66
2021/11/21 14:33:30;;;;;;;8.88;5.97;;;;;;;8.14;83.70;99690.34;10328345;28;20050;-66
2021/11/21 14:38:34;;;;;;;9.40;6.45;;;;;;;8.22;83.89;99702.16;10326577;28;20168;-66
2021/11/21 14:43:40;;;;;;;7.82;6.30;;;;;;;8.29;83.06;99706.03;10310716;28;20184;-67
2021/11/21 14:48:52;;;;;;;8.10;6.00;;;;;;;8.25;84.14;99717.81;10325143;28;20052;-66
2021/11/21 14:54:00;;;;;;;7.35;6.05;;;;;;;8.34;84.19;99710.94;10328280;28;20507;-66
2021/11/21 14:59:03;;;;;;;6.90;5.95;;;;;;;8.29;84.10;99713.97;10308959;28;20504;-66
2021/11/21 15:04:04;;;;;;;7.10;5.53;;;;;;;8.21;84.54;99711.06;10331419;28;20441;-66
2021/11/21 15:09:08;;;;;;;7.18;5.88;;;;;;;8.23;84.62;99711.81;10329621;28;20270;-67
2021/11/21 15:14:10;;;;;;;7.28;6.55;;;;;;;8.20;85.56;99714.72;10328657;28;20062;-68
2021/11/21 15:19:11;;;;;;;6.30;4.97;;;;;;;8.28;85.17;99712.28;10328239;28;20306;-68
2021/11/21 15:24:14;;;;;;;7.95;6.72;;;;;;;8.11;85.35;99719.75;10326992;28;20046;-67
2021/11/21 15:29:16;;;;;;;8.80;7.18;;;;;;;8.09;85.88;99719.03;10326260;28;20209;-65
2021/11/21 15:34:21;;;;;;;8.25;6.93;;;;;;;8.10;85.48;99726.00;10328600;28;20053;-67
2021/11/21 15:39:22;;;;;;;8.75;6.50;;;;;;;8.02;86.23;99733.75;10334030;28;20081;-66
2021/11/21 15:44:23;;;;;;;8.02;7.00;;;;;;;8.07;85.72;99736.03;10319150;28;20053;-66
2021/11/21 15:49:25;;;;;;;7.05;5.70;;;;;;;8.01;85.39;99725.91;10332280;28;20495;-66
2021/11/21 15:54:26;;;;;;;8.55;6.22;;;;;;;7.87;85.64;99716.38;10306667;28;20049;-67
2021/11/21 15:59:28;;;;;;;7.30;6.57;;;;;;;7.75;85.78;99726.13;10320091;28;20057;-67
2021/11/21 16:04:29;;;;;;;6.68;5.32;;;;;;;7.81;86.31;99724.78;10325256;28;20054;-67
2021/11/21 16:09:31;;;;;;;6.78;6.07;;;;;;;7.88;85.88;99731.31;10311449;28;20134;-67
2021/11/21 16:14:32;;;;;;;6.47;5.65;;;;;;;7.85;85.35;99726.25;10326629;28;20054;-67
2021/11/21 16:19:34;;;;;;;6.82;6.00;;;;;;;7.94;85.60;99736.13;10326679;28;20056;-68
2021/11/21 16:24:35;;;;;;;7.70;6.18;;;;;;;7.99;85.34;99722.50;10323689;28;20060;-67
2021/11/21 16:29:38;;;;;;;6.20;5.60;;;;;;;7.86;85.88;99736.72;10324696;28;20409;-67
2021/11/21 16:34:40;;;;;;;6.90;6.07;;;;;;;7.94;85.62;99737.00;10328304;28;20064;-67
2021/11/21 16:39:43;;;;;;;7.80;6.97;;;;;;;7.85;85.72;99737.72;10325011;28;20474;-67
2021/11/21 16:44:45;;;;;;;7.43;6.50;;;;;;;8.01;85.84;99736.50;10325563;28;20049;-67
2021/11/21 16:49:46;;;;;;;10.30;9.38;;;;;;;7.99;85.22;99733.97;10325661;28;20124;-67
2021/11/21 16:54:48;;;;;;;11.07;9.98;;;;;;;8.03;84.96;99748.69;10324614;28;20432;-67
2021/11/21 16:59:51;;;;;;;12.52;11.23;;;;;;;8.12;85.09;99747.97;10302485;28;20128;-67
2021/11/21 17:04:53;;;;;;;14.85;13.55;;;;;;;8.09;84.70;99750.84;10305650;28;20060;-66
2021/11/21 17:09:55;;;;;;;11.60;10.60;;;;;;;8.02;85.00;99743.50;10326506;28;20137;-67
2021/11/21 17:14:56;;;;;;;9.43;8.45;;;;;;;7.99;84.70;99728.69;10324739;28;20144;-68
2021/11/21 17:19:59;;;;;;;11.35;10.25;;;;;;;8.07;84.61;99758.06;10309407;28;20081;-68
2021/11/21 17:25:00;;;;;;;9.50;8.23;;;;;;;8.08;84.36;99757.13;10311148;28;20062;-67
2021/11/21 17:30:02;;;;;;;10.90;9.80;;;;;;;8.11;84.73;99762.19;10330202;28;20133;-69
2021/11/21 17:35:04;;;;;;;9.23;8.18;;;;;;;8.18;84.71;99780.25;10326676;28;20055;-67
2021/11/21 17:40:07;;;;;;;9.52;8.38;;;;;;;8.19;84.49;99787.25;10324044;28;20046;-67
2021/11/21 17:45:09;;;;;;;10.30;9.20;;;;;;;8.19;84.89;99797.84;10323064;28;20145;-68
2021/11/21 17:50:14;;;;;;;11.57;10.48;;;;;;;8.15;84.83;99802.53;10325031;28;20058;-68
2021/11/21 17:55:16;;;;;;;11.13;10.02;;;;;;;8.13;84.61;99809.78;10324004;28;20056;-68
2021/11/21 18:00:20;;;;;;;11.10;9.70;;;;;;;8.20;84.96;99820.75;10320725;28;20050;-68
2021/11/21 18:05:21;;;;;;;9.98;8.82;;;;;;;8.25;84.42;99823.88;10284791;28;20132;-68
2021/11/21 18:10:23;;;;;;;11.57;10.38;;;;;;;8.10;85.15;99821.44;10304771;28;20057;-68
2021/11/21 18:15:26;;;;;;;12.48;11.20;;;;;;;8.16;85.30;99821.97;10317774;28;20060;-66
2021/11/21 18:20:27;;;;;;;9.95;8.95;;;;;;;8.26;85.04;99825.59;10299189;28;20491;-66
2021/11/21 18:25:29;;;;;;;10.18;8.35;;;;;;;8.29;85.16;99841.25;10316425;28;20057;-66
2021/11/21 18:30:30;;;;;;;8.55;7.47;;;;;;;7.92;84.95;99838.78;10322854;28;20087;-66
2021/11/21 18:35:34;;;;;;;8.43;7.53;;;;;;;7.93;86.13;99841.31;10327319;28;20132;-66
2021/11/21 18:40:36;;;;;;;8.82;7.93;;;;;;;8.12;85.49;99840.75;10306237;28;20050;-66
2021/11/21 18:45:41;;;;;;;9.75;8.45;;;;;;;7.88;85.73;99843.47;10260665;28;20185;-67
2021/11/21 18:50:42;;;;;;;9.77;8.68;;;;;;;7.86;84.99;99834.78;10303749;28;20058;-67
2021/11/21 18:55:57;;;;;;;9.23;8.18;;;;;;;7.89;85.25;99839.00;10325887;28;20046;-68
2021/11/21 19:00:59;;;;;;;10.38;9.38;;;;;;;8.00;84.63;99867.34;10304768;28;20569;-68
2021/11/21 19:06:00;;;;;;;10.30;9.00;;;;;;;8.00;85.30;99872.63;10319230;28;20050;-68
2021/11/21 19:11:02;;;;;;;10.25;8.57;;;;;;;8.02;84.91;99870.75;10300278;28;20220;-66
2021/11/21 19:16:04;;;;;;;12.50;9.60;;;;;;;7.98;84.45;99859.50;10294232;28;20137;-70
2021/11/21 19:21:05;;;;;;;11.23;9.27;;;;;;;8.10;84.60;99876.28;10317882;28;20356;-67
2021/11/21 19:26:07;;;;;;;12.95;11.63;;;;;;;8.14;85.12;99875.09;10306010;28;20054;-67
2021/11/21 19:31:09;;;;;;;13.63;10.85;;;;;;;8.32;84.90;99891.41;10315076;28;20068;-67
2021/11/21 19:36:14;;;;;;;13.15;9.93;;;;;;;8.40;84.73;99896.94;10316227;28;20055;-67
2021/11/21 19:41:16;;;;;;;;;;;;;;;8.46;84.16;99896.50;10296648;28;20066;-67
2021/11/21 19:46:17;;;;;;;13.63;11.05;;;;;;;8.45;83.78;99905.44;10318181;28;19960;-68
2021/11/21 19:51:20;;;;;;;13.07;10.75;;;;;;;8.41;84.08;99909.25;10304789;28;20056;-68
2021/11/21 19:56:22;;;;;;;12.88;10.63;;;;;;;8.46;84.81;99907.13;10318970;28;20061;-68
2021/11/21 20:01:23;;;;;;;11.82;10.60;;;;;;;8.49;83.98;99908.69;10315737;28;20054;-68
2021/11/21 20:06:26;;;;;;;12.98;11.45;;;;;;;8.51;84.04;99919.19;10318452;28;20413;-68
2021/11/21 20:11:27;;;;;;;12.38;10.95;;;;;;;8.44;83.88;99929.44;10317178;28;20053;-68
2021/11/21 20:16:30;;;;;;;12.48;11.18;;;;;;;8.48;84.21;99923.78;10290704;28;20048;-67
2021/11/21 20:21:32;;;;;;;11.60;10.15;;;;;;;8.55;84.30;99931.25;10316993;28;20618;-69
2021/11/21 20:26:35;;;;;;;9.70;8.73;;;;;;;8.56;84.17;99935.63;10315206;28;20042;-67
2021/11/21 20:36:56;;;;;;;10.90;7.40;;;;;;;8.45;84.15;99957.63;10326027;28;20106;-66
2021/11/21 20:41:58;;;;;;;8.10;7.30;;;;;;;8.64;83.78;99946.47;10247822;28;20050;-68
2021/11/21 20:47:02;;;;;;;9.40;7.85;;;;;;;8.46;84.04;99962.81;10231483;28;20428;-67
2021/11/21 20:52:05;;;;;;;10.10;9.13;;;;;;;8.55;84.52;99950.66;10252137;28;20061;-68
2021/11/21 20:57:08;;;;;;;10.57;9.47;;;;;;;8.63;84.24;99960.69;10256744;28;20619;-68
2021/11/21 21:02:10;;;;;;;10.77;9.68;;;;;;;8.66;83.97;99955.13;10273130;28;20107;-68
2021/11/21 21:07:12;;;;;;;13.40;12.10;;;;;;;8.69;83.77;99960.19;10303620;28;20053;-67
2021/11/21 21:12:13;;;;;;;14.65;11.68;;;;;;;8.76;84.01;99971.22;10343719;23;20063;-60
2021/11/21 21:17:18;;;;;;;16.08;10.63;;;;;;;8.74;83.90;99976.63;10350144;28;20088;-58
2021/11/21 21:22:20;;;;;;;12.40;11.18;;;;;;;8.79;83.95;99979.75;10324077;28;20418;-59
2021/11/21 21:27:22;;;;;;;14.55;11.90;;;;;;;8.83;83.58;99983.88;10310250;28;20559;-59
2021/11/21 21:32:25;;;;;;;12.88;11.38;;;;;;;8.79;83.50;99977.13;10330667;28;20520;-58
2021/11/21 21:37:27;;;;;;;12.65;10.90;;;;;;;8.73;83.73;99984.72;10312592;28;20054;-59
2021/11/21 21:42:47;;;;;;;14.65;11.88;;;;;;;8.66;83.86;99986.97;10313075;28;20061;-58
2021/11/21 21:47:48;;;;;;;13.40;10.95;;;;;;;8.72;83.94;99994.50;10314914;28;20541;-58
2021/11/21 21:52:49;;;;;;;14.80;11.27;;;;;;;8.74;83.83;99995.22;10325925;28;20608;-59
2021/11/21 21:57:56;;;;;;;14.68;11.55;;;;;;;8.72;83.67;100005.13;10310402;28;20616;-58
2021/11/21 22:03:03;;;;;;;15.32;12.32;;;;;;;8.74;83.69;100000.53;10313803;28;20069;-57
2021/11/21 22:08:06;;;;;;;13.27;11.07;;;;;;;8.75;83.53;100001.34;10290385;28;20054;-59
2021/11/21 22:13:08;;;;;;;16.98;12.93;;;;;;;8.71;83.80;100000.75;10333264;28;20149;-58
2021/11/21 22:18:11;;;;;;;16.60;11.65;;;;;;;8.76;84.02;100005.72;10318610;28;20076;-58
2021/11/21 22:23:12;;;;;;;17.15;11.98;;;;;;;8.79;83.61;100010.78;10331917;28;20132;-58
2021/11/21 22:28:14;;;;;;;16.60;11.90;;;;;;;8.74;83.58;100011.13;10318250;28;20046;-59
2021/11/21 22:33:16;;;;;;;18.85;13.05;;;;;;;8.81;83.71;100028.28;10316547;28;20070;-58
2021/11/21 22:38:17;;;;;;;15.85;11.77;;;;;;;8.80;83.83;100044.31;10313236;28;20137;-58
2021/11/21 22:43:19;;;;;;;17.13;12.45;;;;;;;8.81;83.82;100030.06;10303089;28;21227;-59
2021/11/21 22:48:21;;;;;;;15.27;12.18;;;;;;;8.82;84.18;100034.44;10300774;28;20148;-59
2021/11/21 22:53:22;;;;;;;14.98;11.73;;;;;;;8.78;84.32;100039.13;10302026;28;20585;-59
2021/11/21 22:58:24;;;;;;;18.02;13.25;;;;;;;8.84;84.16;100046.63;10306558;28;20467;-59
2021/11/21 23:03:25;;;;;;;17.63;13.00;;;;;;;8.84;84.30;100046.63;10310296;28;20078;-58
2021/11/21 23:08:27;;;;;;;17.48;11.35;;;;;;;8.71;84.07;100021.13;10306976;28;20057;-58
2021/11/21 23:13:28;;;;;;;17.67;12.63;;;;;;;8.94;84.23;100061.84;10307636;28;20502;-58
2021/11/21 23:18:30;;;;;;;16.52;11.10;;;;;;;8.92;83.84;100066.44;10303176;28;20123;-59
2021/11/21 23:23:31;;;;;;;16.20;12.70;;;;;;;8.83;83.77;100057.38;10306601;28;20073;-58
2021/11/21 23:28:33;;;;;;;15.52;11.68;;;;;;;8.89;83.62;100072.81;10305417;28;20498;-57